Time;durP1;ratioP1;P1;durP2;ratioP2;P2;SDS_P1;SDS_P2;PMS_P1;PMS_P2;Temp;Humidity;BMP_temperature;BMP_pressure;BME280_temperature;BME280_humidity;BME280_pressure;Samples;Min_cycle;Max_cycle;Signal;HPM_P1;HPM_P2
2023/03/02 00:00:15;;;;;;;14.90;10.93;;;;;;;-1.81;100.00;101491.78;684637;28;1397;-62
2023/03/02 00:00:42;;;;;;;15.00;10.30;;;;;;;-1.81;100.00;101496.03;683188;28;4407;-62
2023/03/02 00:01:09;;;;;;;15.50;10.27;;;;;;;-1.79;100.00;101495.31;681315;28;1283;-62
2023/03/02 00:01:40;;;;;;;13.55;10.05;;;;;;;-1.80;100.00;101501.25;682547;28;1242;-62
2023/03/02 00:02:08;;;;;;;15.65;10.63;;;;;;;-1.82;100.00;101494.25;679565;29;1339;-62
2023/03/02 00:02:28;;;;;;;15.40;10.00;;;;;;;-1.85;100.00;101492.41;680572;28;1252;-61
2023/03/02 00:02:52;;;;;;;14.70;9.90;;;;;;;-1.86;100.00;101490.63;680180;29;2056;-62
2023/03/02 00:03:17;;;;;;;15.80;10.00;;;;;;;-1.86;100.00;101493.19;679392;29;1450;-62
2023/03/02 00:03:42;;;;;;;16.95;10.30;;;;;;;-1.88;100.00;101499.91;679869;28;1275;-61
2023/03/02 00:04:05;;;;;;;15.32;10.13;;;;;;;-1.90;100.00;101498.91;682097;28;5155;-64
2023/03/02 00:04:51;;;;;;;15.20;10.18;;;;;;;-1.90;100.00;101491.22;685388;28;1247;-61
2023/03/02 00:05:13;;;;;;;15.23;10.32;;;;;;;-1.92;100.00;101492.84;685059;28;1420;-64
2023/03/02 00:05:35;;;;;;;13.93;10.00;;;;;;;-1.90;100.00;101496.34;682726;28;1955;-61
2023/03/02 00:05:56;;;;;;;13.57;9.95;;;;;;;-1.92;100.00;101493.72;674228;29;2252;-62
2023/03/02 00:06:20;;;;;;;13.63;9.65;;;;;;;-1.92;100.00;101498.84;676098;29;1211;-62
2023/03/02 00:06:41;;;;;;;13.95;9.80;;;;;;;-1.91;100.00;101498.03;675808;29;4460;-63
2023/03/02 00:07:04;;;;;;;15.18;10.05;;;;;;;-1.93;100.00;101498.75;677084;29;1334;-61
2023/03/02 00:07:35;;;;;;;15.38;10.50;;;;;;;-1.94;100.00;101502.09;680687;28;1291;-62
2023/03/02 00:07:58;;;;;;;15.30;10.20;;;;;;;-1.95;100.00;101498.66;686825;28;1230;-62
2023/03/02 00:08:18;;;;;;;15.57;9.90;;;;;;;-1.93;100.00;101503.88;687319;28;1291;-61
2023/03/02 00:08:40;;;;;;;15.07;10.25;;;;;;;-1.94;100.00;101495.31;685706;28;1262;-62
2023/03/02 00:09:01;;;;;;;15.85;10.15;;;;;;;-1.92;100.00;101500.53;684704;28;1105;-60
2023/03/02 00:09:21;;;;;;;14.23;10.00;;;;;;;-1.94;100.00;101495.31;685537;28;1353;-61
2023/03/02 00:09:44;;;;;;;14.77;10.18;;;;;;;-1.94;100.00;101494.41;684449;28;4680;-63
2023/03/02 00:10:04;;;;;;;15.20;10.10;;;;;;;-1.93;100.00;101499.63;683044;28;1327;-61
2023/03/02 00:10:28;;;;;;;14.75;9.88;;;;;;;-1.93;100.00;101494.50;682797;28;1267;-61
2023/03/02 00:10:53;;;;;;;14.50;10.00;;;;;;;-1.92;100.00;101503.09;683230;28;1295;-62
2023/03/02 00:11:14;;;;;;;14.40;9.35;;;;;;;-1.91;100.00;101499.69;682171;28;1438;-61
2023/03/02 00:11:37;;;;;;;14.13;9.23;;;;;;;-1.83;100.00;101495.03;684323;28;1315;-61
2023/03/02 00:11:58;;;;;;;13.88;9.50;;;;;;;-1.73;100.00;101495.69;683344;28;1268;-65
2023/03/02 00:12:19;;;;;;;14.30;9.40;;;;;;;-1.75;100.00;101499.81;685002;28;1981;-61
2023/03/02 00:12:39;;;;;;;13.73;9.25;;;;;;;-1.77;100.00;101500.56;683853;28;4367;-61
2023/03/02 00:13:00;;;;;;;13.60;9.43;;;;;;;-1.81;100.00;101502.03;684052;28;1264;-62
2023/03/02 00:13:20;;;;;;;14.00;9.90;;;;;;;-1.83;100.00;101506.16;683317;28;1327;-62
2023/03/02 00:13:41;;;;;;;14.48;10.00;;;;;;;-1.87;100.00;101506.78;684038;28;1259;-61
2023/03/02 00:14:02;;;;;;;14.02;9.70;;;;;;;-1.90;100.00;101499.81;685043;28;1221;-61
2023/03/02 00:14:22;;;;;;;15.73;10.07;;;;;;;-1.91;100.00;101500.59;684717;28;1244;-61
2023/03/02 00:14:43;;;;;;;15.13;9.87;;;;;;;-1.90;100.00;101499.81;684709;28;1279;-61
2023/03/02 00:15:04;;;;;;;14.38;9.90;;;;;;;-1.90;100.00;101497.25;683800;28;1257;-61
2023/03/02 00:15:28;;;;;;;14.73;10.20;;;;;;;-1.86;100.00;101500.00;683581;28;1147;-61
2023/03/02 00:15:48;;;;;;;15.85;10.05;;;;;;;-1.83;100.00;101502.72;684284;28;4372;-62
2023/03/02 00:16:09;;;;;;;15.53;9.90;;;;;;;-1.77;100.00;101503.13;687502;28;1991;-61
2023/03/02 00:16:29;;;;;;;14.90;9.63;;;;;;;-1.83;100.00;101502.72;687603;28;1305;-61
2023/03/02 00:16:50;;;;;;;13.83;9.63;;;;;;;-1.82;100.00;101497.69;687721;28;998;-63
2023/03/02 00:17:10;;;;;;;14.55;10.25;;;;;;;-1.84;100.00;101500.97;687519;28;952;-61
2023/03/02 00:17:30;;;;;;;14.43;10.13;;;;;;;-1.84;100.00;101495.84;685248;28;1280;-61
2023/03/02 00:17:54;;;;;;;15.23;10.00;;;;;;;-1.86;100.00;101498.31;685830;28;1457;-61
2023/03/02 00:18:14;;;;;;;14.90;10.18;;;;;;;-1.86;100.00;101503.44;685056;28;1073;-61
2023/03/02 00:18:34;;;;;;;14.13;10.00;;;;;;;-1.88;100.00;101497.34;686676;28;1227;-61
2023/03/02 00:18:58;;;;;;;14.50;9.60;;;;;;;-1.92;100.00;101503.09;685035;28;4414;-61
2023/03/02 00:19:18;;;;;;;15.15;9.85;;;;;;;-1.94;100.00;101499.53;684180;28;2109;-61
2023/03/02 00:19:38;;;;;;;14.43;9.80;;;;;;;-1.95;100.00;101497.75;684383;28;1279;-62
2023/03/02 00:20:11;;;;;;;13.97;9.70;;;;;;;-1.97;100.00;101497.66;684484;28;2163;-61
2023/03/02 00:20:33;;;;;;;15.80;10.27;;;;;;;-1.82;100.00;101500.25;684961;28;1570;-61
2023/03/02 00:20:53;;;;;;;16.30;10.60;;;;;;;-1.86;100.00;101495.75;685502;28;1263;-61
2023/03/02 00:21:14;;;;;;;15.38;10.10;;;;;;;-1.89;100.00;101493.88;682512;28;1505;-61
2023/03/02 00:21:34;;;;;;;15.13;9.67;;;;;;;-1.86;100.00;101497.44;681387;28;2066;-61
2023/03/02 00:21:55;;;;;;;14.20;9.50;;;;;;;-1.88;100.00;101494.78;682975;28;4675;-61
2023/03/02 00:22:15;;;;;;;14.87;9.67;;;;;;;-1.90;100.00;101492.13;684672;28;1132;-62
2023/03/02 00:22:42;;;;;;;14.93;10.43;;;;;;;-1.92;100.00;101497.97;685589;28;1233;-61
2023/03/02 00:23:02;;;;;;;14.27;10.25;;;;;;;-1.94;100.00;101490.19;685047;28;3512;-61
2023/03/02 00:23:22;;;;;;;14.20;9.77;;;;;;;-1.92;100.00;101487.72;685450;28;1302;-62
2023/03/02 00:23:43;;;;;;;14.63;9.97;;;;;;;-1.92;100.00;101492.84;684455;28;1322;-62
2023/03/02 00:24:04;;;;;;;14.70;10.45;;;;;;;-1.93;100.00;101489.38;685212;28;1263;-61
2023/03/02 00:24:24;;;;;;;14.57;10.35;;;;;;;-1.95;100.00;101487.50;684865;28;1373;-62
2023/03/02 00:24:48;;;;;;;15.13;10.13;;;;;;;-1.98;100.00;101495.91;685024;28;4409;-61
2023/03/02 00:25:13;;;;;;;14.23;10.23;;;;;;;-1.98;100.00;101500.16;685147;28;1314;-62
2023/03/02 00:25:34;;;;;;;14.63;10.40;;;;;;;-2.00;100.00;101488.94;684568;28;2083;-62
2023/03/02 00:25:55;;;;;;;14.50;10.52;;;;;;;-1.97;100.00;101489.97;684832;28;1101;-63
2023/03/02 00:26:15;;;;;;;14.80;10.23;;;;;;;-1.92;100.00;101493.72;685296;28;1089;-61
2023/03/02 00:26:36;;;;;;;14.33;10.30;;;;;;;-1.92;100.00;101492.84;685325;28;1326;-61
2023/03/02 00:26:56;;;;;;;15.27;10.40;;;;;;;-1.98;100.00;101487.31;682403;28;1267;-62
2023/03/02 00:27:17;;;;;;;14.55;10.13;;;;;;;-1.98;100.00;101489.88;682313;28;1275;-61
2023/03/02 00:27:37;;;;;;;14.30;10.13;;;;;;;-2.00;100.00;101482.13;682648;28;1085;-61
2023/03/02 00:27:58;;;;;;;15.18;10.60;;;;;;;-2.03;100.00;101484.50;682099;28;4244;-62
2023/03/02 00:28:21;;;;;;;15.13;10.57;;;;;;;-2.05;100.00;101483.50;682379;28;2351;-62
2023/03/02 00:28:42;;;;;;;15.35;10.55;;;;;;;-2.07;100.00;101483.44;683058;28;1534;-61
2023/03/02 00:29:06;;;;;;;14.75;10.63;;;;;;;-2.04;100.00;101486.97;685413;28;1980;-61
2023/03/02 00:29:26;;;;;;;14.45;10.82;;;;;;;-2.06;100.00;101482.63;685229;28;1186;-61
2023/03/02 00:29:49;;;;;;;14.97;10.53;;;;;;;-2.06;100.00;101476.66;683257;28;1260;-61
2023/03/02 00:30:12;;;;;;;16.33;11.13;;;;;;;-2.01;100.00;101476.91;682172;28;1279;-61
2023/03/02 00:30:32;;;;;;;16.00;11.00;;;;;;;-1.97;100.00;101481.41;681325;28;1583;-61
2023/03/02 00:30:53;;;;;;;15.32;10.70;;;;;;;-1.97;100.00;101473.72;679172;28;4385;-61
2023/03/02 00:31:14;;;;;;;14.93;10.53;;;;;;;-1.97;100.00;101479.72;677999;28;1478;-61
2023/03/02 00:31:34;;;;;;;15.45;10.60;;;;;;;-1.98;100.00;101480.53;677431;28;1474;-61
2023/03/02 00:31:54;;;;;;;15.05;10.38;;;;;;;-1.99;100.00;101488.16;679069;29;1433;-61
2023/03/02 00:32:20;;;;;;;15.00;10.00;;;;;;;-2.02;100.00;101476.03;679938;28;1208;-61
2023/03/02 00:32:41;;;;;;;14.20;10.18;;;;;;;-2.02;100.00;101476.03;682265;28;1089;-61
2023/03/02 00:33:02;;;;;;;14.10;10.50;;;;;;;-2.04;100.00;101481.84;682608;28;1443;-64
2023/03/02 00:33:22;;;;;;;15.00;10.98;;;;;;;-1.99;100.00;101486.47;683023;28;1252;-60
2023/03/02 00:33:42;;;;;;;15.03;11.03;;;;;;;-1.96;100.00;101478.06;682716;28;4383;-61
2023/03/02 00:34:03;;;;;;;14.73;10.88;;;;;;;-1.97;100.00;101481.41;682740;28;1296;-61
2023/03/02 00:34:24;;;;;;;15.50;11.20;;;;;;;-2.00;100.00;101488.94;681201;28;1032;-61
2023/03/02 00:34:44;;;;;;;15.17;10.77;;;;;;;-2.03;100.00;101479.38;677867;29;1337;-61
2023/03/02 00:35:06;;;;;;;15.15;10.90;;;;;;;-2.03;100.00;101475.94;677264;28;1319;-62
2023/03/02 00:35:26;;;;;;;14.70;10.38;;;;;;;-2.05;100.00;101475.81;679499;28;1970;-61
2023/03/02 00:35:49;;;;;;;15.25;10.65;;;;;;;-2.08;100.00;101481.69;682190;28;1298;-61
2023/03/02 00:36:15;;;;;;;14.80;10.32;;;;;;;-2.08;100.00;101480.78;680796;28;1470;-60
2023/03/02 00:36:36;;;;;;;14.98;10.20;;;;;;;-2.11;100.00;101481.47;679190;29;1279;-61
2023/03/02 00:36:57;;;;;;;14.98;10.20;;;;;;;-2.09;100.00;101479.91;680090;28;4302;-64
2023/03/02 00:37:18;;;;;;;15.50;10.73;;;;;;;-2.09;100.00;101479.00;683337;28;1335;-60
2023/03/02 00:37:38;;;;;;;16.02;10.75;;;;;;;-2.09;100.00;101473.88;683873;28;1235;-62
2023/03/02 00:37:58;;;;;;;14.50;10.33;;;;;;;-2.09;100.00;101482.47;682341;28;1354;-61
2023/03/02 00:38:22;;;;;;;14.30;10.02;;;;;;;-2.08;100.00;101481.69;682126;28;2090;-63
2023/03/02 00:38:43;;;;;;;14.23;9.80;;;;;;;-2.08;100.00;101480.78;686136;28;1267;-62
2023/03/02 00:39:03;;;;;;;14.55;10.05;;;;;;;-2.09;100.00;101486.69;682078;28;1309;-61
2023/03/02 00:39:24;;;;;;;14.80;10.15;;;;;;;-2.10;100.00;101480.69;679995;29;1244;-61
2023/03/02 00:39:44;;;;;;;14.87;10.40;;;;;;;-2.09;100.00;101471.31;680093;28;4746;-61
2023/03/02 00:40:08;;;;;;;14.13;10.35;;;;;;;-2.03;100.00;101474.25;680469;28;1183;-62
2023/03/02 00:40:28;;;;;;;14.02;9.98;;;;;;;-2.02;100.00;101473.47;678781;28;1284;-61
2023/03/02 00:40:49;;;;;;;14.90;10.30;;;;;;;-2.02;100.00;101476.03;678574;28;1489;-62
2023/03/02 00:41:15;;;;;;;15.17;10.63;;;;;;;-2.03;100.00;101474.25;681981;28;2420;-61
2023/03/02 00:41:36;;;;;;;14.57;10.13;;;;;;;-2.03;100.00;101471.69;684019;28;1299;-60
2023/03/02 00:41:56;;;;;;;13.82;9.98;;;;;;;-2.03;100.00;101473.38;682355;28;5193;-62
2023/03/02 00:42:16;;;;;;;14.37;10.23;;;;;;;-2.03;100.00;101471.69;682323;28;1350;-61
2023/03/02 00:42:40;;;;;;;14.43;10.32;;;;;;;-2.07;100.00;101472.31;684679;28;4584;-61
2023/03/02 00:43:00;;;;;;;15.00;10.60;;;;;;;-2.06;100.00;101464.69;682014;28;1190;-62
2023/03/02 00:43:26;;;;;;;14.00;9.75;;;;;;;-2.04;100.00;101469.03;681965;28;1313;-60
2023/03/02 00:43:47;;;;;;;14.55;10.10;;;;;;;-2.01;100.00;101474.34;681078;28;1371;-61
2023/03/02 00:44:08;;;;;;;13.88;10.07;;;;;;;-2.03;100.00;101474.25;683787;28;1363;-61
2023/03/02 00:44:28;;;;;;;13.53;10.07;;;;;;;-2.03;100.00;101468.25;684025;28;1426;-61
2023/03/02 00:44:51;;;;;;;15.35;9.98;;;;;;;-2.04;100.00;101474.16;682025;28;1263;-62
2023/03/02 00:45:11;;;;;;;14.82;9.93;;;;;;;-2.03;100.00;101470.81;682635;28;2218;-62
2023/03/02 00:45:31;;;;;;;15.23;10.60;;;;;;;-2.03;100.00;101470.81;679932;28;1420;-61
2023/03/02 00:45:53;;;;;;;16.40;10.70;;;;;;;-2.01;100.00;101471.78;679600;28;4321;-62
2023/03/02 00:46:17;;;;;;;14.63;10.00;;;;;;;-2.01;100.00;101470.09;677136;29;1407;-61
2023/03/02 00:46:37;;;;;;;14.10;9.77;;;;;;;-2.00;100.00;101466.75;677135;29;1308;-61
2023/03/02 00:46:58;;;;;;;15.27;10.55;;;;;;;-2.00;100.00;101477.00;676858;29;1241;-62
2023/03/02 00:47:18;;;;;;;14.73;10.23;;;;;;;-2.01;100.00;101472.66;679023;29;1300;-62
2023/03/02 00:47:42;;;;;;;14.17;9.77;;;;;;;-2.01;100.00;101471.78;681669;28;1236;-61
2023/03/02 00:48:02;;;;;;;14.38;9.60;;;;;;;-2.02;100.00;101473.47;679847;28;1112;-61
2023/03/02 00:48:22;;;;;;;14.40;9.40;;;;;;;-2.03;100.00;101476.81;679456;29;1288;-61
2023/03/02 00:48:43;;;;;;;13.90;9.17;;;;;;;-2.02;100.00;101470.00;679078;28;4471;-61
2023/03/02 00:49:04;;;;;;;14.07;9.70;;;;;;;-2.04;100.00;101472.47;682650;28;1952;-61
2023/03/02 00:49:24;;;;;;;14.53;10.13;;;;;;;-2.04;100.00;101469.91;683271;28;1474;-60
2023/03/02 00:49:48;;;;;;;15.32;10.50;;;;;;;-2.02;100.00;101472.56;685001;28;1097;-63
2023/03/02 00:50:09;;;;;;;16.10;10.40;;;;;;;-2.02;100.00;101477.69;682381;28;1247;-61
2023/03/02 00:50:29;;;;;;;14.95;10.00;;;;;;;-2.02;100.00;101475.13;682357;28;1287;-62
2023/03/02 00:50:50;;;;;;;14.40;9.90;;;;;;;-2.03;100.00;101476.81;679520;29;1271;-63
2023/03/02 00:51:11;;;;;;;14.80;9.40;;;;;;;-2.03;100.00;101473.38;680010;28;1390;-61
2023/03/02 00:51:32;;;;;;;14.35;9.30;;;;;;;-2.05;100.00;101473.25;679871;28;1030;-61
2023/03/02 00:51:52;;;;;;;14.95;9.75;;;;;;;-2.08;100.00;101463.75;679805;28;4544;-61
2023/03/02 00:52:12;;;;;;;15.63;9.93;;;;;;;-2.09;100.00;101469.66;682678;28;1279;-62
2023/03/02 00:52:33;;;;;;;15.13;9.93;;;;;;;-2.09;100.00;101482.47;683273;28;1387;-61
2023/03/02 00:52:54;;;;;;;15.23;9.63;;;;;;;-2.11;100.00;101466.09;684993;28;1406;-61
2023/03/02 00:53:14;;;;;;;14.27;9.40;;;;;;;-2.11;100.00;101468.66;684742;28;1429;-61
2023/03/02 00:53:35;;;;;;;14.40;10.07;;;;;;;-2.12;100.00;101466.91;684946;28;1290;-61
2023/03/02 00:53:55;;;;;;;15.07;9.88;;;;;;;-2.11;100.00;101465.22;682123;28;1330;-62
2023/03/02 00:54:16;;;;;;;14.43;9.50;;;;;;;-2.11;100.00;101475.47;678685;29;1244;-61
2023/03/02 00:54:36;;;;;;;13.47;9.50;;;;;;;-2.12;100.00;101468.56;679563;28;1072;-61
2023/03/02 00:54:56;;;;;;;13.57;9.27;;;;;;;-2.13;100.00;101467.69;677096;28;4499;-62
2023/03/02 00:55:17;;;;;;;15.27;9.70;;;;;;;-2.14;100.00;101465.94;679549;28;1169;-63
2023/03/02 00:55:37;;;;;;;14.77;10.07;;;;;;;-2.13;100.00;101461.66;682382;28;2232;-61
2023/03/02 00:55:59;;;;;;;14.50;9.35;;;;;;;-2.12;100.00;101469.47;682259;28;1509;-61
2023/03/02 00:56:20;;;;;;;15.13;9.93;;;;;;;-2.11;100.00;101462.66;682525;28;1275;-65
2023/03/02 00:56:44;;;;;;;14.20;10.07;;;;;;;-2.11;100.00;101460.97;682239;28;1412;-64
2023/03/02 00:57:04;;;;;;;14.02;9.85;;;;;;;-2.10;100.00;101464.44;681076;28;1562;-61
2023/03/02 00:57:25;;;;;;;14.07;9.63;;;;;;;-2.10;100.00;101473.00;682868;28;1329;-64
2023/03/02 00:57:53;;;;;;;13.68;9.35;;;;;;;-2.08;100.00;101463.75;681798;28;4431;-62
2023/03/02 00:58:16;;;;;;;15.32;9.15;;;;;;;-2.09;100.00;101461.97;683369;28;1228;-61
2023/03/02 00:58:37;;;;;;;13.47;9.30;;;;;;;-2.05;100.00;101468.13;685405;28;1345;-63
2023/03/02 00:58:57;;;;;;;12.95;9.02;;;;;;;-2.04;100.00;101471.59;681874;28;2050;-61
2023/03/02 00:59:27;;;;;;;13.03;8.73;;;;;;;-2.06;100.00;101474.06;679448;29;1267;-60
2023/03/02 01:00:11;;;;;;;13.32;9.18;;;;;;;-2.04;100.00;101477.59;681600;28;1319;-61
2023/03/02 01:00:34;;;;;;;14.40;9.15;;;;;;;-2.04;100.00;101474.16;682379;28;1292;-61
2023/03/02 01:01:03;;;;;;;16.52;8.95;;;;;;;-2.02;100.00;101478.59;680806;28;5050;-63
2023/03/02 01:01:25;;;;;;;13.25;8.52;;;;;;;-2.01;100.00;101471.78;678964;28;1279;-62
2023/03/02 01:01:56;;;;;;;13.25;8.82;;;;;;;-1.99;100.00;101470.22;674935;29;1967;-60
2023/03/02 01:02:20;;;;;;;11.93;8.70;;;;;;;-1.97;100.00;101469.47;674190;29;1639;-61
2023/03/02 01:02:42;;;;;;;13.23;8.80;;;;;;;-1.96;100.00;101473.81;674883;29;1433;-61
2023/03/02 01:03:04;;;;;;;13.15;9.07;;;;;;;-1.95;100.00;101470.47;675184;29;1309;-61
2023/03/02 01:03:24;;;;;;;13.65;9.05;;;;;;;-1.95;100.00;101474.69;678924;29;1601;-61
2023/03/02 01:03:45;;;;;;;13.33;8.50;;;;;;;-1.95;100.00;101469.56;680078;28;4641;-61
2023/03/02 01:04:06;;;;;;;13.13;8.52;;;;;;;-1.93;100.00;101473.13;676868;29;1463;-60
2023/03/02 01:04:32;;;;;;;12.70;8.90;;;;;;;-1.93;100.00;101470.56;678391;29;1550;-61
2023/03/02 01:04:52;;;;;;;12.75;8.65;;;;;;;-1.92;100.00;101467.22;677641;29;1286;-61
2023/03/02 01:05:13;;;;;;;12.95;8.50;;;;;;;-1.91;100.00;101474.06;678682;28;1482;-61
2023/03/02 01:05:35;;;;;;;13.30;9.00;;;;;;;-1.91;100.00;101471.50;679092;29;1425;-63
2023/03/02 01:05:56;;;;;;;13.63;8.70;;;;;;;-1.91;100.00;101464.72;681432;28;2207;-62
2023/03/02 01:06:19;;;;;;;14.40;9.05;;;;;;;-1.90;100.00;101470.72;681962;28;1390;-61
2023/03/02 01:06:46;;;;;;;13.13;8.90;;;;;;;-1.91;100.00;101472.41;679893;28;5310;-59
2023/03/02 01:07:09;;;;;;;13.18;8.90;;;;;;;-1.92;100.00;101462.09;683896;28;1243;-61
2023/03/02 01:07:30;;;;;;;14.15;8.80;;;;;;;-1.91;100.00;101464.72;681865;28;1393;-60
2023/03/02 01:07:51;;;;;;;14.32;9.32;;;;;;;-1.91;100.00;101463.81;680250;28;1523;-60
2023/03/02 01:08:12;;;;;;;14.07;9.13;;;;;;;-1.91;100.00;101462.16;675416;29;1458;-61
2023/03/02 01:08:32;;;;;;;13.75;9.45;;;;;;;-1.89;100.00;101467.38;677643;29;1439;-60
2023/03/02 01:08:52;;;;;;;14.30;9.17;;;;;;;-1.90;100.00;101460.47;677265;29;1292;-60
2023/03/02 01:09:17;;;;;;;13.68;9.05;;;;;;;-1.90;100.00;101463.03;678245;29;1906;-61
2023/03/02 01:09:39;;;;;;;13.90;9.02;;;;;;;-1.89;100.00;101458.00;680334;28;1318;-61
2023/03/02 01:09:59;;;;;;;13.82;9.02;;;;;;;-1.88;100.00;101464.03;679942;28;4966;-61
2023/03/02 01:10:20;;;;;;;13.23;8.40;;;;;;;-1.87;100.00;101460.66;682633;28;1255;-61
2023/03/02 01:10:40;;;;;;;13.00;8.67;;;;;;;-1.86;100.00;101462.44;683601;28;1044;-60
2023/03/02 01:11:01;;;;;;;12.82;8.60;;;;;;;-1.88;100.00;101458.91;682744;28;1416;-61
2023/03/02 01:11:24;;;;;;;12.48;8.82;;;;;;;-1.88;100.00;101459.78;677908;29;1244;-65
2023/03/02 01:11:44;;;;;;;13.18;8.68;;;;;;;-1.86;100.00;101459.00;677126;29;1252;-62
2023/03/02 01:12:10;;;;;;;12.83;8.50;;;;;;;-1.87;100.00;101455.53;678530;28;1584;-61
2023/03/02 01:12:31;;;;;;;12.93;8.75;;;;;;;-1.88;100.00;101454.66;679412;28;1844;-61
2023/03/02 01:12:51;;;;;;;14.32;9.05;;;;;;;-1.87;100.00;101455.53;678452;28;4495;-61
2023/03/02 01:13:12;;;;;;;14.03;8.60;;;;;;;-1.87;100.00;101450.41;680890;28;1426;-60
2023/03/02 01:13:33;;;;;;;13.55;8.55;;;;;;;-1.84;100.00;101452.25;679757;29;1765;-61
2023/03/02 01:13:56;;;;;;;12.85;8.65;;;;;;;-1.84;100.00;101455.72;678333;28;1016;-63
2023/03/02 01:14:19;;;;;;;13.70;9.00;;;;;;;-1.83;100.00;101456.59;676987;29;1622;-61
2023/03/02 01:14:44;;;;;;;13.13;8.82;;;;;;;-1.83;100.00;101456.59;676745;29;1098;-65
2023/03/02 01:15:06;;;;;;;12.73;8.80;;;;;;;-1.82;100.00;101451.56;678119;28;1928;-61
2023/03/02 01:15:26;;;;;;;12.25;8.55;;;;;;;-1.81;100.00;101450.78;681028;28;1261;-62
2023/03/02 01:15:59;;;;;;;12.93;8.60;;;;;;;-1.78;100.00;101453.50;682902;28;4738;-61
2023/03/02 01:16:19;;;;;;;12.80;8.90;;;;;;;-1.79;100.00;101454.28;685046;28;1252;-61
2023/03/02 01:16:40;;;;;;;11.77;8.27;;;;;;;-1.78;100.00;101452.63;682230;28;1243;-62
2023/03/02 01:17:00;;;;;;;12.30;8.20;;;;;;;-1.76;100.00;101449.38;682485;28;1260;-62
2023/03/02 01:17:24;;;;;;;13.38;8.75;;;;;;;-1.76;100.00;101449.38;681314;28;1949;-65
2023/03/02 01:17:45;;;;;;;13.38;8.85;;;;;;;-1.78;100.00;101450.06;682766;28;1180;-61
2023/03/02 01:18:06;;;;;;;13.00;8.88;;;;;;;-1.81;100.00;101448.22;683298;28;1752;-61
2023/03/02 01:18:26;;;;;;;13.63;8.68;;;;;;;-1.82;100.00;101451.56;680074;28;1267;-62
2023/03/02 01:18:46;;;;;;;12.63;8.60;;;;;;;-1.82;100.00;101449.00;679721;28;4894;-60
2023/03/02 01:19:10;;;;;;;12.65;8.55;;;;;;;-1.84;100.00;101448.03;679052;28;1977;-61
2023/03/02 01:19:30;;;;;;;12.80;8.80;;;;;;;-1.84;100.00;101447.13;679406;28;3623;-61
2023/03/02 01:19:51;;;;;;;12.13;8.68;;;;;;;-1.82;100.00;101451.56;679470;28;1295;-62
2023/03/02 01:20:12;;;;;;;12.95;8.82;;;;;;;-1.82;100.00;101448.13;680090;28;1436;-61
2023/03/02 01:20:32;;;;;;;14.20;8.98;;;;;;;-1.82;100.00;101443.88;681385;28;1383;-61
2023/03/02 01:21:03;;;;;;;13.70;9.00;;;;;;;-1.84;100.00;101445.47;681494;28;1224;-61
2023/03/02 01:21:24;;;;;;;12.82;8.43;;;;;;;-1.84;100.00;101449.69;681269;28;1580;-63
2023/03/02 01:21:44;;;;;;;14.38;8.52;;;;;;;-1.91;100.00;101446.78;678705;28;4634;-62
2023/03/02 01:22:06;;;;;;;14.43;8.95;;;;;;;-1.94;100.00;101443.16;677680;29;1149;-61
2023/03/02 01:22:26;;;;;;;13.20;8.63;;;;;;;-1.97;100.00;101443.84;678786;28;1267;-60
2023/03/02 01:22:47;;;;;;;13.50;8.67;;;;;;;-1.98;100.00;101452.34;681947;28;1224;-61
2023/03/02 01:23:10;;;;;;;13.52;8.77;;;;;;;-1.98;100.00;101451.44;680911;28;1332;-61
2023/03/02 01:23:30;;;;;;;13.10;8.57;;;;;;;-1.96;100.00;101449.88;682984;28;1334;-61
2023/03/02 01:23:51;;;;;;;12.45;9.10;;;;;;;-1.98;100.00;101443.75;685660;28;1212;-61
2023/03/02 01:24:11;;;;;;;13.63;9.03;;;;;;;-2.00;100.00;101447.94;686349;28;1404;-61
2023/03/02 01:24:32;;;;;;;14.10;9.40;;;;;;;-2.00;100.00;101441.13;687450;28;1302;-61
2023/03/02 01:24:53;;;;;;;14.95;9.50;;;;;;;-1.98;100.00;101443.75;686556;28;4426;-61
2023/03/02 01:25:13;;;;;;;13.97;9.57;;;;;;;-1.97;100.00;101438.72;684432;28;1228;-61
2023/03/02 01:25:38;;;;;;;14.68;9.15;;;;;;;-1.99;100.00;101439.47;683134;28;2077;-61
2023/03/02 01:25:58;;;;;;;12.60;9.05;;;;;;;-1.99;100.00;101439.47;682695;28;1124;-61
2023/03/02 01:26:19;;;;;;;13.23;9.17;;;;;;;-1.99;100.00;101435.19;684105;28;1227;-61
2023/03/02 01:26:39;;;;;;;13.23;8.82;;;;;;;-2.00;100.00;101442.81;683014;28;1311;-61
2023/03/02 01:27:00;;;;;;;12.90;8.63;;;;;;;-2.00;100.00;101442.81;682788;28;1144;-62
2023/03/02 01:27:21;;;;;;;13.98;8.90;;;;;;;-2.01;100.00;101430.78;683742;28;1261;-61
2023/03/02 01:27:41;;;;;;;13.50;8.82;;;;;;;-2.02;100.00;101439.25;678903;28;4503;-61
2023/03/02 01:28:02;;;;;;;14.13;9.40;;;;;;;-2.03;100.00;101442.63;680013;28;1291;-62
2023/03/02 01:28:22;;;;;;;14.23;9.47;;;;;;;-2.03;100.00;101432.38;679039;28;2246;-61
2023/03/02 01:28:43;;;;;;;13.75;9.45;;;;;;;-2.03;100.00;101425.56;679922;28;1180;-62
2023/03/02 01:29:04;;;;;;;14.17;9.70;;;;;;;-2.03;100.00;101434.94;679452;28;1200;-60
2023/03/02 01:29:24;;;;;;;13.32;9.20;;;;;;;-2.04;100.00;101438.28;679766;28;1987;-65
2023/03/02 01:29:44;;;;;;;14.32;9.77;;;;;;;-2.06;100.00;101439.09;680510;28;1256;-61
2023/03/02 01:30:06;;;;;;;13.80;9.63;;;;;;;-2.06;100.00;101427.97;682512;28;1311;-61
2023/03/02 01:30:26;;;;;;;13.18;9.45;;;;;;;-2.06;100.00;101433.97;682150;28;1117;-61
2023/03/02 01:30:47;;;;;;;13.33;9.37;;;;;;;-2.05;100.00;101434.81;680076;28;4408;-61
2023/03/02 01:31:08;;;;;;;13.63;9.38;;;;;;;-2.06;100.00;101433.97;684523;28;1073;-61
2023/03/02 01:31:29;;;;;;;13.10;9.25;;;;;;;-2.06;100.00;101433.09;685843;28;1382;-61
2023/03/02 01:31:49;;;;;;;13.05;9.30;;;;;;;-2.04;100.00;101436.59;682127;28;1998;-61
2023/03/02 01:32:10;;;;;;;14.57;9.27;;;;;;;-2.04;100.00;101430.59;680092;28;1027;-61
2023/03/02 01:32:30;;;;;;;13.63;9.40;;;;;;;-2.04;100.00;101438.28;679943;28;1264;-61
2023/03/02 01:32:53;;;;;;;12.80;9.57;;;;;;;-2.06;100.00;101433.09;682708;28;1337;-61
2023/03/02 01:33:13;;;;;;;13.77;9.30;;;;;;;-2.08;100.00;101432.09;682551;28;1458;-60
2023/03/02 01:33:34;;;;;;;14.33;9.57;;;;;;;-2.09;100.00;101432.88;680506;28;1546;-61
2023/03/02 01:33:54;;;;;;;13.57;9.52;;;;;;;-2.08;100.00;101432.09;676944;28;4445;-61
2023/03/02 01:34:18;;;;;;;13.60;9.63;;;;;;;-2.09;100.00;101433.78;678941;29;1106;-60
2023/03/02 01:34:38;;;;;;;14.57;9.93;;;;;;;-2.08;100.00;101430.44;676866;29;1102;-61
2023/03/02 01:34:59;;;;;;;14.48;9.45;;;;;;;-2.08;100.00;101424.41;677164;29;1965;-61
2023/03/02 01:35:20;;;;;;;14.30;9.40;;;;;;;-2.10;100.00;101426.88;676837;29;1118;-62
2023/03/02 01:35:42;;;;;;;14.17;9.63;;;;;;;-2.11;100.00;101426.78;678041;29;1240;-61
2023/03/02 01:36:03;;;;;;;14.10;9.60;;;;;;;-2.07;100.00;101432.19;676503;28;2043;-61
2023/03/02 01:36:23;;;;;;;14.20;9.23;;;;;;;-2.08;100.00;101432.09;678016;29;1419;-60
2023/03/02 01:36:44;;;;;;;13.80;9.18;;;;;;;-2.07;100.00;101418.50;678740;28;4397;-61
2023/03/02 01:37:04;;;;;;;14.27;9.30;;;;;;;-2.07;100.00;101427.06;680290;28;1173;-61
2023/03/02 01:37:25;;;;;;;15.18;9.88;;;;;;;-2.07;100.00;101426.19;682910;28;1239;-61
2023/03/02 01:37:45;;;;;;;14.17;9.50;;;;;;;-2.09;100.00;101423.53;682927;28;1224;-60
2023/03/02 01:38:08;;;;;;;13.07;9.60;;;;;;;-2.10;100.00;101421.75;684204;28;1235;-61
2023/03/02 01:38:31;;;;;;;13.32;9.40;;;;;;;-2.09;100.00;101426.09;685266;28;1078;-61
2023/03/02 01:38:52;;;;;;;15.18;9.57;;;;;;;-2.08;100.00;101420.19;682322;28;1223;-61
2023/03/02 01:39:16;;;;;;;14.40;9.32;;;;;;;-2.09;100.00;101417.50;681247;28;1303;-61
2023/03/02 01:39:36;;;;;;;15.25;9.63;;;;;;;-2.11;100.00;101419.97;681418;28;1698;-61
2023/03/02 01:39:57;;;;;;;12.73;9.20;;;;;;;-2.13;100.00;101421.59;681879;28;4469;-60
2023/03/02 01:40:18;;;;;;;12.97;9.37;;;;;;;-2.12;100.00;101422.47;682388;28;1082;-60
2023/03/02 01:40:38;;;;;;;12.40;9.50;;;;;;;-2.12;100.00;101422.47;683005;28;2206;-62
2023/03/02 01:40:58;;;;;;;12.90;9.30;;;;;;;-2.13;100.00;101416.47;684587;28;1318;-62
2023/03/02 01:41:19;;;;;;;12.90;9.18;;;;;;;-2.15;100.00;101420.59;685283;28;1373;-61